sensor_id;sensor_type;location;lat;lon;timestamp;P1;durP1;ratioP1;P2;durP2;ratioP2
83646;SDS011;73609;50.134;14.376;2024-03-02T00:00:05;54.0;;;36.3;;
83646;SDS011;73609;50.134;14.376;2024-03-02T00:02:06;54.8;;;37.0;;
83646;SDS011;73609;50.134;14.376;2024-03-02T00:04:05;56.7;;;36.8;;
83646;SDS011;73609;50.134;14.376;2024-03-02T00:06:05;54.7;;;35.4;;
83646;SDS011;73609;50.134;14.376;2024-03-02T00:08:05;55.4;;;36.2;;
83646;SDS011;73609;50.134;14.376;2024-03-02T00:10:07;56.2;;;36.5;;
83646;SDS011;73609;50.134;14.376;2024-03-02T00:12:05;53.4;;;35.9;;
83646;SDS011;73609;50.134;14.376;2024-03-02T00:14:05;54.3;;;37.0;;
83646;SDS011;73609;50.134;14.376;2024-03-02T00:16:05;55.7;;;36.4;;
83646;SDS011;73609;50.134;14.376;2024-03-02T00:18:05;53.3;;;34.7;;
83646;SDS011;73609;50.134;14.376;2024-03-02T00:20:05;51.2;;;35.0;;
83646;SDS011;73609;50.134;14.376;2024-03-02T00:22:06;53.6;;;36.1;;
83646;SDS011;73609;50.134;14.376;2024-03-02T00:24:16;53.9;;;36.6;;
83646;SDS011;73609;50.134;14.376;2024-03-02T00:26:05;57.6;;;36.2;;
83646;SDS011;73609;50.134;14.376;2024-03-02T00:28:05;58.5;;;37.0;;
83646;SDS011;73609;50.134;14.376;2024-03-02T00:30:17;53.4;;;35.0;;
83646;SDS011;73609;50.134;14.376;2024-03-02T00:32:07;53.1;;;35.0;;
83646;SDS011;73609;50.134;14.376;2024-03-02T00:34:05;54.8;;;36.2;;
83646;SDS011;73609;50.134;14.376;2024-03-02T00:36:05;59.1;;;36.7;;
83646;SDS011;73609;50.134;14.376;2024-03-02T00:38:05;54.7;;;35.8;;
83646;SDS011;73609;50.134;14.376;2024-03-02T00:40:05;54.4;;;36.7;;
83646;SDS011;73609;50.134;14.376;2024-03-02T00:42:05;55.7;;;36.4;;
83646;SDS011;73609;50.134;14.376;2024-03-02T00:44:06;55.2;;;36.3;;
83646;SDS011;73609;50.134;14.376;2024-03-02T00:46:05;53.3;;;36.4;;
83646;SDS011;73609;50.134;14.376;2024-03-02T00:48:05;60.9;;;38.9;;
83646;SDS011;73609;50.134;14.376;2024-03-02T00:50:05;60.1;;;38.3;;
83646;SDS011;73609;50.134;14.376;2024-03-02T00:52:05;61.0;;;40.1;;
83646;SDS011;73609;50.134;14.376;2024-03-02T00:54:06;59.4;;;38.7;;
83646;SDS011;73609;50.134;14.376;2024-03-02T00:56:05;58.2;;;39.0;;
83646;SDS011;73609;50.134;14.376;2024-03-02T00:58:05;58.6;;;38.3;;
83646;SDS011;73609;50.134;14.376;2024-03-02T01:00:05;61.0;;;38.5;;
83646;SDS011;73609;50.134;14.376;2024-03-02T01:02:05;61.2;;;39.4;;
83646;SDS011;73609;50.134;14.376;2024-03-02T01:04:05;57.8;;;38.4;;
83646;SDS011;73609;50.134;14.376;2024-03-02T01:06:05;61.1;;;39.2;;
83646;SDS011;73609;50.134;14.376;2024-03-02T01:08:05;59.0;;;37.8;;
83646;SDS011;73609;50.134;14.376;2024-03-02T01:10:05;59.6;;;37.4;;
83646;SDS011;73609;50.134;14.376;2024-03-02T01:12:05;59.8;;;37.8;;
83646;SDS011;73609;50.134;14.376;2024-03-02T01:14:05;55.8;;;37.0;;
83646;SDS011;73609;50.134;14.376;2024-03-02T01:16:05;60.5;;;38.2;;
83646;SDS011;73609;50.134;14.376;2024-03-02T01:18:05;61.0;;;39.5;;
83646;SDS011;73609;50.134;14.376;2024-03-02T01:20:07;60.4;;;39.0;;
83646;SDS011;73609;50.134;14.376;2024-03-02T01:22:05;62.8;;;40.4;;
83646;SDS011;73609;50.134;14.376;2024-03-02T01:24:05;63.8;;;40.7;;
83646;SDS011;73609;50.134;14.376;2024-03-02T01:26:05;60.8;;;40.0;;
83646;SDS011;73609;50.134;14.376;2024-03-02T01:28:05;61.4;;;38.8;;
83646;SDS011;73609;50.134;14.376;2024-03-02T01:30:05;64.8;;;40.3;;
83646;SDS011;73609;50.134;14.376;2024-03-02T01:32:05;58.5;;;37.9;;
83646;SDS011;73609;50.134;14.376;2024-03-02T01:34:05;58.9;;;36.6;;
83646;SDS011;73609;50.134;14.376;2024-03-02T01:36:05;58.4;;;38.3;;
83646;SDS011;73609;50.134;14.376;2024-03-02T01:38:05;61.4;;;38.0;;
83646;SDS011;73609;50.134;14.376;2024-03-02T01:40:05;59.3;;;38.0;;
83646;SDS011;73609;50.134;14.376;2024-03-02T01:42:05;58.9;;;39.1;;
83646;SDS011;73609;50.134;14.376;2024-03-02T01:44:05;59.8;;;38.1;;
83646;SDS011;73609;50.134;14.376;2024-03-02T01:46:05;61.0;;;38.1;;
83646;SDS011;73609;50.134;14.376;2024-03-02T01:48:05;62.1;;;39.3;;
83646;SDS011;73609;50.134;14.376;2024-03-02T01:50:05;61.5;;;38.4;;
83646;SDS011;73609;50.134;14.376;2024-03-02T01:52:05;60.0;;;39.7;;
83646;SDS011;73609;50.134;14.376;2024-03-02T01:54:05;60.9;;;38.7;;
83646;SDS011;73609;50.134;14.376;2024-03-02T01:56:05;58.9;;;38.0;;
83646;SDS011;73609;50.134;14.376;2024-03-02T01:58:05;58.9;;;37.4;;
83646;SDS011;73609;50.134;14.376;2024-03-02T02:00:05;58.0;;;37.2;;
83646;SDS011;73609;50.134;14.376;2024-03-02T02:02:05;59.0;;;38.1;;
83646;SDS011;73609;50.134;14.376;2024-03-02T02:04:05;56.8;;;37.9;;
83646;SDS011;73609;50.134;14.376;2024-03-02T02:06:05;56.8;;;36.3;;
83646;SDS011;73609;50.134;14.376;2024-03-02T02:08:05;61.2;;;37.8;;
83646;SDS011;73609;50.134;14.376;2024-03-02T02:10:05;61.0;;;38.5;;
83646;SDS011;73609;50.134;14.376;2024-03-02T02:12:05;61.6;;;38.8;;
83646;SDS011;73609;50.134;14.376;2024-03-02T02:14:06;61.8;;;37.9;;
83646;SDS011;73609;50.134;14.376;2024-03-02T02:16:05;60.4;;;38.3;;
83646;SDS011;73609;50.134;14.376;2024-03-02T02:18:05;59.1;;;37.4;;
83646;SDS011;73609;50.134;14.376;2024-03-02T02:20:05;61.6;;;38.9;;
83646;SDS011;73609;50.134;14.376;2024-03-02T02:22:05;60.9;;;37.5;;
83646;SDS011;73609;50.134;14.376;2024-03-02T02:24:05;56.8;;;35.4;;
83646;SDS011;73609;50.134;14.376;2024-03-02T02:26:05;56.7;;;36.9;;
83646;SDS011;73609;50.134;14.376;2024-03-02T02:28:05;56.9;;;36.6;;
83646;SDS011;73609;50.134;14.376;2024-03-02T02:30:05;53.7;;;35.4;;
83646;SDS011;73609;50.134;14.376;2024-03-02T02:32:05;58.2;;;37.2;;
83646;SDS011;73609;50.134;14.376;2024-03-02T02:34:05;55.2;;;35.7;;
83646;SDS011;73609;50.134;14.376;2024-03-02T02:36:05;55.0;;;34.9;;
83646;SDS011;73609;50.134;14.376;2024-03-02T02:38:05;55.0;;;35.4;;
83646;SDS011;73609;50.134;14.376;2024-03-02T02:40:05;55.7;;;36.1;;
83646;SDS011;73609;50.134;14.376;2024-03-02T02:42:05;54.1;;;36.0;;
83646;SDS011;73609;50.134;14.376;2024-03-02T02:44:05;59.9;;;36.4;;
83646;SDS011;73609;50.134;14.376;2024-03-02T02:46:05;56.8;;;35.9;;
83646;SDS011;73609;50.134;14.376;2024-03-02T02:48:05;53.4;;;34.3;;
83646;SDS011;73609;50.134;14.376;2024-03-02T02:50:06;52.1;;;33.3;;
83646;SDS011;73609;50.134;14.376;2024-03-02T02:52:05;57.2;;;36.2;;
83646;SDS011;73609;50.134;14.376;2024-03-02T02:54:05;52.8;;;33.7;;
83646;SDS011;73609;50.134;14.376;2024-03-02T02:56:05;55.8;;;35.6;;
83646;SDS011;73609;50.134;14.376;2024-03-02T02:58:06;55.1;;;34.5;;
83646;SDS011;73609;50.134;14.376;2024-03-02T03:00:06;56.5;;;36.1;;
83646;SDS011;73609;50.134;14.376;2024-03-02T03:02:05;53.6;;;33.8;;
83646;SDS011;73609;50.134;14.376;2024-03-02T03:04:05;54.2;;;34.6;;
83646;SDS011;73609;50.134;14.376;2024-03-02T03:06:05;52.5;;;33.1;;
83646;SDS011;73609;50.134;14.376;2024-03-02T03:08:05;52.2;;;33.6;;
83646;SDS011;73609;50.134;14.376;2024-03-02T03:10:05;51.1;;;32.8;;
83646;SDS011;73609;50.134;14.376;2024-03-02T03:12:05;53.9;;;33.5;;
83646;SDS011;73609;50.134;14.376;2024-03-02T03:14:05;52.2;;;32.6;;
83646;SDS011;73609;50.134;14.376;2024-03-02T03:16:05;51.8;;;32.6;;
83646;SDS011;73609;50.134;14.376;2024-03-02T03:18:05;50.2;;;32.0;;
83646;SDS011;73609;50.134;14.376;2024-03-02T03:20:05;55.3;;;33.6;;
83646;SDS011;73609;50.134;14.376;2024-03-02T03:22:05;52.0;;;31.5;;
83646;SDS011;73609;50.134;14.376;2024-03-02T03:24:05;48.9;;;32.0;;
83646;SDS011;73609;50.134;14.376;2024-03-02T03:26:05;52.6;;;33.4;;
83646;SDS011;73609;50.134;14.376;2024-03-02T03:28:05;51.3;;;33.0;;
83646;SDS011;73609;50.134;14.376;2024-03-02T03:30:05;52.8;;;33.3;;
83646;SDS011;73609;50.134;14.376;2024-03-02T03:32:05;51.5;;;32.7;;
83646;SDS011;73609;50.134;14.376;2024-03-02T03:34:05;50.0;;;31.8;;
83646;SDS011;73609;50.134;14.376;2024-03-02T03:36:05;49.8;;;31.4;;
83646;SDS011;73609;50.134;14.376;2024-03-02T03:38:05;49.7;;;30.9;;
83646;SDS011;73609;50.134;14.376;2024-03-02T03:40:05;51.6;;;32.1;;
83646;SDS011;73609;50.134;14.376;2024-03-02T03:42:05;48.6;;;31.7;;
83646;SDS011;73609;50.134;14.376;2024-03-02T03:44:05;49.8;;;30.9;;
83646;SDS011;73609;50.134;14.376;2024-03-02T03:46:05;48.2;;;30.7;;
83646;SDS011;73609;50.134;14.376;2024-03-02T03:48:05;49.5;;;31.8;;
83646;SDS011;73609;50.134;14.376;2024-03-02T03:50:05;52.0;;;33.3;;
83646;SDS011;73609;50.134;14.376;2024-03-02T03:52:05;52.9;;;32.7;;
83646;SDS011;73609;50.134;14.376;2024-03-02T03:54:05;54.3;;;32.2;;
83646;SDS011;73609;50.134;14.376;2024-03-02T03:56:05;51.0;;;31.6;;
83646;SDS011;73609;50.134;14.376;2024-03-02T03:58:05;48.6;;;31.0;;
83646;SDS011;73609;50.134;14.376;2024-03-02T04:00:05;49.0;;;30.7;;
83646;SDS011;73609;50.134;14.376;2024-03-02T04:02:05;47.7;;;30.2;;
83646;SDS011;73609;50.134;14.376;2024-03-02T04:04:05;47.6;;;30.0;;
83646;SDS011;73609;50.134;14.376;2024-03-02T04:06:05;49.2;;;29.3;;
83646;SDS011;73609;50.134;14.376;2024-03-02T04:08:05;45.0;;;28.4;;
83646;SDS011;73609;50.134;14.376;2024-03-02T04:10:06;46.0;;;29.6;;
83646;SDS011;73609;50.134;14.376;2024-03-02T04:12:05;47.2;;;29.1;;
83646;SDS011;73609;50.134;14.376;2024-03-02T04:14:05;43.0;;;27.4;;
83646;SDS011;73609;50.134;14.376;2024-03-02T04:16:05;46.9;;;29.9;;
83646;SDS011;73609;50.134;14.376;2024-03-02T04:18:05;41.9;;;27.5;;
83646;SDS011;73609;50.134;14.376;2024-03-02T04:20:05;40.6;;;26.8;;
83646;SDS011;73609;50.134;14.376;2024-03-02T04:22:05;44.7;;;26.9;;
83646;SDS011;73609;50.134;14.376;2024-03-02T04:24:05;42.1;;;26.1;;
83646;SDS011;73609;50.134;14.376;2024-03-02T04:26:05;40.2;;;26.0;;
83646;SDS011;73609;50.134;14.376;2024-03-02T04:28:05;41.6;;;25.1;;
83646;SDS011;73609;50.134;14.376;2024-03-02T04:30:05;38.7;;;24.4;;
83646;SDS011;73609;50.134;14.376;2024-03-02T04:32:05;39.6;;;24.6;;
83646;SDS011;73609;50.134;14.376;2024-03-02T04:34:05;37.2;;;23.0;;
83646;SDS011;73609;50.134;14.376;2024-03-02T04:36:05;38.7;;;24.1;;
83646;SDS011;73609;50.134;14.376;2024-03-02T04:38:05;38.5;;;24.4;;
83646;SDS011;73609;50.134;14.376;2024-03-02T04:40:05;39.0;;;23.7;;
83646;SDS011;73609;50.134;14.376;2024-03-02T04:42:05;36.2;;;22.3;;
83646;SDS011;73609;50.134;14.376;2024-03-02T04:44:05;34.4;;;22.3;;
83646;SDS011;73609;50.134;14.376;2024-03-02T04:46:05;35.6;;;22.6;;
83646;SDS011;73609;50.134;14.376;2024-03-02T04:48:05;36.0;;;22.3;;
83646;SDS011;73609;50.134;14.376;2024-03-02T04:50:05;37.5;;;22.2;;
83646;SDS011;73609;50.134;14.376;2024-03-02T04:52:05;34.1;;;21.7;;
83646;SDS011;73609;50.134;14.376;2024-03-02T04:54:05;32.3;;;21.5;;
83646;SDS011;73609;50.134;14.376;2024-03-02T04:56:05;32.8;;;20.9;;
83646;SDS011;73609;50.134;14.376;2024-03-02T04:58:05;32.6;;;21.5;;
83646;SDS011;73609;50.134;14.376;2024-03-02T05:00:05;32.0;;;21.9;;
83646;SDS011;73609;50.134;14.376;2024-03-02T05:02:05;34.3;;;20.3;;
83646;SDS011;73609;50.134;14.376;2024-03-02T05:04:05;34.2;;;20.8;;
83646;SDS011;73609;50.134;14.376;2024-03-02T05:06:05;34.5;;;21.7;;
83646;SDS011;73609;50.134;14.376;2024-03-02T05:08:05;35.5;;;22.3;;
83646;SDS011;73609;50.134;14.376;2024-03-02T05:10:05;34.5;;;21.6;;
83646;SDS011;73609;50.134;14.376;2024-03-02T05:12:05;32.7;;;20.8;;
83646;SDS011;73609;50.134;14.376;2024-03-02T05:14:05;32.9;;;20.8;;
83646;SDS011;73609;50.134;14.376;2024-03-02T05:16:05;33.2;;;20.8;;
83646;SDS011;73609;50.134;14.376;2024-03-02T05:18:05;33.7;;;19.1;;
83646;SDS011;73609;50.134;14.376;2024-03-02T05:20:05;32.1;;;20.1;;
83646;SDS011;73609;50.134;14.376;2024-03-02T05:22:05;33.6;;;19.8;;
83646;SDS011;73609;50.134;14.376;2024-03-02T05:24:05;32.1;;;19.5;;
83646;SDS011;73609;50.134;14.376;2024-03-02T05:26:05;30.0;;;19.0;;
83646;SDS011;73609;50.134;14.376;2024-03-02T05:28:05;29.4;;;19.3;;
83646;SDS011;73609;50.134;14.376;2024-03-02T05:30:05;32.2;;;19.5;;
83646;SDS011;73609;50.134;14.376;2024-03-02T05:32:05;30.2;;;18.8;;
83646;SDS011;73609;50.134;14.376;2024-03-02T05:34:05;31.7;;;19.3;;
83646;SDS011;73609;50.134;14.376;2024-03-02T05:36:05;31.7;;;19.7;;
83646;SDS011;73609;50.134;14.376;2024-03-02T05:38:05;29.5;;;19.1;;
83646;SDS011;73609;50.134;14.376;2024-03-02T05:40:05;30.1;;;18.4;;
83646;SDS011;73609;50.134;14.376;2024-03-02T05:42:05;29.7;;;19.1;;
83646;SDS011;73609;50.134;14.376;2024-03-02T05:44:05;29.4;;;18.4;;
83646;SDS011;73609;50.134;14.376;2024-03-02T05:46:05;30.7;;;18.4;;
83646;SDS011;73609;50.134;14.376;2024-03-02T05:48:06;28.4;;;18.4;;
83646;SDS011;73609;50.134;14.376;2024-03-02T05:50:05;31.8;;;18.9;;
83646;SDS011;73609;50.134;14.376;2024-03-02T05:52:05;29.8;;;18.6;;
83646;SDS011;73609;50.134;14.376;2024-03-02T05:54:05;30.6;;;19.4;;
83646;SDS011;73609;50.134;14.376;2024-03-02T05:56:05;30.8;;;18.5;;
83646;SDS011;73609;50.134;14.376;2024-03-02T05:58:05;30.8;;;19.7;;
83646;SDS011;73609;50.134;14.376;2024-03-02T06:00:05;32.1;;;19.7;;
83646;SDS011;73609;50.134;14.376;2024-03-02T06:02:05;31.5;;;19.6;;
83646;SDS011;73609;50.134;14.376;2024-03-02T06:04:05;30.1;;;19.3;;
83646;SDS011;73609;50.134;14.376;2024-03-02T06:06:05;31.8;;;20.3;;
83646;SDS011;73609;50.134;14.376;2024-03-02T06:08:05;31.5;;;19.7;;
83646;SDS011;73609;50.134;14.376;2024-03-02T06:10:05;33.0;;;19.6;;
83646;SDS011;73609;50.134;14.376;2024-03-02T06:12:05;30.7;;;18.9;;
83646;SDS011;73609;50.134;14.376;2024-03-02T06:14:05;31.0;;;18.9;;
83646;SDS011;73609;50.134;14.376;2024-03-02T06:16:05;30.6;;;19.4;;
83646;SDS011;73609;50.134;14.376;2024-03-02T06:18:05;30.2;;;18.6;;
83646;SDS011;73609;50.134;14.376;2024-03-02T06:20:05;28.2;;;19.3;;
83646;SDS011;73609;50.134;14.376;2024-03-02T06:22:05;29.7;;;18.8;;
83646;SDS011;73609;50.134;14.376;2024-03-02T06:24:05;30.9;;;18.6;;
83646;SDS011;73609;50.134;14.376;2024-03-02T06:26:05;29.4;;;19.0;;
83646;SDS011;73609;50.134;14.376;2024-03-02T06:28:05;31.8;;;19.2;;
83646;SDS011;73609;50.134;14.376;2024-03-02T06:30:05;30.6;;;18.6;;
83646;SDS011;73609;50.134;14.376;2024-03-02T06:32:05;30.7;;;18.8;;
83646;SDS011;73609;50.134;14.376;2024-03-02T06:34:05;29.1;;;18.1;;
83646;SDS011;73609;50.134;14.376;2024-03-02T06:36:05;27.7;;;17.8;;
83646;SDS011;73609;50.134;14.376;2024-03-02T06:38:05;31.3;;;19.0;;
83646;SDS011;73609;50.134;14.376;2024-03-02T06:40:05;30.5;;;18.4;;
83646;SDS011;73609;50.134;14.376;2024-03-02T06:42:05;29.6;;;18.2;;
83646;SDS011;73609;50.134;14.376;2024-03-02T06:44:05;28.2;;;18.8;;
83646;SDS011;73609;50.134;14.376;2024-03-02T06:46:05;30.5;;;18.6;;
83646;SDS011;73609;50.134;14.376;2024-03-02T06:48:05;28.1;;;18.6;;
83646;SDS011;73609;50.134;14.376;2024-03-02T06:50:05;29.6;;;18.4;;
83646;SDS011;73609;50.134;14.376;2024-03-02T06:52:05;28.9;;;18.8;;
83646;SDS011;73609;50.134;14.376;2024-03-02T06:54:05;30.7;;;18.1;;
83646;SDS011;73609;50.134;14.376;2024-03-02T06:56:06;28.8;;;18.6;;
83646;SDS011;73609;50.134;14.376;2024-03-02T06:58:05;28.5;;;17.9;;
83646;SDS011;73609;50.134;14.376;2024-03-02T07:00:05;29.6;;;18.2;;
83646;SDS011;73609;50.134;14.376;2024-03-02T07:02:05;29.3;;;19.0;;
83646;SDS011;73609;50.134;14.376;2024-03-02T07:04:05;30.0;;;18.2;;
83646;SDS011;73609;50.134;14.376;2024-03-02T07:06:05;30.2;;;18.5;;
83646;SDS011;73609;50.134;14.376;2024-03-02T07:08:05;29.1;;;19.3;;
83646;SDS011;73609;50.134;14.376;2024-03-02T07:10:05;29.8;;;18.0;;
83646;SDS011;73609;50.134;14.376;2024-03-02T07:12:05;29.9;;;17.6;;
83646;SDS011;73609;50.134;14.376;2024-03-02T07:14:05;28.5;;;18.2;;
83646;SDS011;73609;50.134;14.376;2024-03-02T07:16:05;29.8;;;18.0;;
83646;SDS011;73609;50.134;14.376;2024-03-02T07:18:05;28.9;;;17.7;;
83646;SDS011;73609;50.134;14.376;2024-03-02T07:20:05;28.7;;;17.8;;
83646;SDS011;73609;50.134;14.376;2024-03-02T07:22:06;29.5;;;18.3;;
83646;SDS011;73609;50.134;14.376;2024-03-02T07:24:05;28.7;;;18.2;;
83646;SDS011;73609;50.134;14.376;2024-03-02T07:26:05;26.1;;;17.1;;
83646;SDS011;73609;50.134;14.376;2024-03-02T07:28:05;29.7;;;17.4;;
83646;SDS011;73609;50.134;14.376;2024-03-02T07:30:05;30.3;;;18.3;;
83646;SDS011;73609;50.134;14.376;2024-03-02T07:32:05;28.5;;;17.6;;
83646;SDS011;73609;50.134;14.376;2024-03-02T07:34:05;28.1;;;18.7;;
83646;SDS011;73609;50.134;14.376;2024-03-02T07:36:05;29.4;;;18.6;;
83646;SDS011;73609;50.134;14.376;2024-03-02T07:38:05;30.3;;;19.1;;
83646;SDS011;73609;50.134;14.376;2024-03-02T07:40:05;33.6;;;21.5;;
83646;SDS011;73609;50.134;14.376;2024-03-02T07:42:05;30.4;;;19.1;;
83646;SDS011;73609;50.134;14.376;2024-03-02T07:44:05;29.2;;;18.2;;
83646;SDS011;73609;50.134;14.376;2024-03-02T07:46:05;32.0;;;19.0;;
83646;SDS011;73609;50.134;14.376;2024-03-02T07:48:05;30.1;;;18.6;;
83646;SDS011;73609;50.134;14.376;2024-03-02T07:50:05;30.7;;;18.7;;
83646;SDS011;73609;50.134;14.376;2024-03-02T07:52:05;28.3;;;18.2;;
83646;SDS011;73609;50.134;14.376;2024-03-02T07:54:05;28.7;;;17.7;;
83646;SDS011;73609;50.134;14.376;2024-03-02T07:56:05;34.2;;;20.9;;
83646;SDS011;73609;50.134;14.376;2024-03-02T07:58:06;29.3;;;18.3;;
83646;SDS011;73609;50.134;14.376;2024-03-02T08:00:05;28.5;;;17.4;;
83646;SDS011;73609;50.134;14.376;2024-03-02T08:02:05;27.6;;;17.2;;
83646;SDS011;73609;50.134;14.376;2024-03-02T08:04:05;30.1;;;18.8;;
83646;SDS011;73609;50.134;14.376;2024-03-02T08:06:05;29.6;;;17.9;;
83646;SDS011;73609;50.134;14.376;2024-03-02T08:08:05;29.8;;;18.6;;
83646;SDS011;73609;50.134;14.376;2024-03-02T08:10:05;28.0;;;18.2;;
83646;SDS011;73609;50.134;14.376;2024-03-02T08:12:05;29.1;;;18.2;;
83646;SDS011;73609;50.134;14.376;2024-03-02T08:14:05;27.9;;;17.4;;
83646;SDS011;73609;50.134;14.376;2024-03-02T08:16:05;29.9;;;18.2;;
83646;SDS011;73609;50.134;14.376;2024-03-02T08:18:05;28.6;;;17.9;;
83646;SDS011;73609;50.134;14.376;2024-03-02T08:20:05;28.3;;;17.6;;
83646;SDS011;73609;50.134;14.376;2024-03-02T08:22:05;27.5;;;17.1;;
83646;SDS011;73609;50.134;14.376;2024-03-02T08:24:05;26.6;;;17.2;;
83646;SDS011;73609;50.134;14.376;2024-03-02T08:26:05;27.3;;;17.3;;
83646;SDS011;73609;50.134;14.376;2024-03-02T08:28:05;28.9;;;18.0;;
83646;SDS011;73609;50.134;14.376;2024-03-02T08:30:05;28.1;;;17.7;;
83646;SDS011;73609;50.134;14.376;2024-03-02T08:32:05;28.0;;;17.7;;
83646;SDS011;73609;50.134;14.376;2024-03-02T08:34:06;26.9;;;17.4;;
83646;SDS011;73609;50.134;14.376;2024-03-02T08:36:05;26.5;;;17.3;;
83646;SDS011;73609;50.134;14.376;2024-03-02T08:38:05;26.9;;;16.5;;
83646;SDS011;73609;50.134;14.376;2024-03-02T08:40:06;24.7;;;16.4;;
83646;SDS011;73609;50.134;14.376;2024-03-02T08:42:05;27.2;;;17.1;;
83646;SDS011;73609;50.134;14.376;2024-03-02T08:44:05;28.2;;;17.3;;
83646;SDS011;73609;50.134;14.376;2024-03-02T08:46:05;27.8;;;17.0;;
83646;SDS011;73609;50.134;14.376;2024-03-02T08:48:06;26.2;;;16.2;;
83646;SDS011;73609;50.134;14.376;2024-03-02T08:50:05;25.8;;;16.4;;
83646;SDS011;73609;50.134;14.376;2024-03-02T08:52:05;24.7;;;14.9;;
83646;SDS011;73609;50.134;14.376;2024-03-02T08:54:05;23.6;;;15.3;;
83646;SDS011;73609;50.134;14.376;2024-03-02T08:56:05;23.8;;;15.4;;
83646;SDS011;73609;50.134;14.376;2024-03-02T08:58:06;23.3;;;15.2;;
83646;SDS011;73609;50.134;14.376;2024-03-02T09:00:05;24.4;;;14.8;;
83646;SDS011;73609;50.134;14.376;2024-03-02T09:02:05;23.6;;;14.6;;
83646;SDS011;73609;50.134;14.376;2024-03-02T09:04:05;23.3;;;14.4;;
83646;SDS011;73609;50.134;14.376;2024-03-02T09:06:05;25.0;;;14.5;;
83646;SDS011;73609;50.134;14.376;2024-03-02T09:08:05;22.4;;;15.3;;
83646;SDS011;73609;50.134;14.376;2024-03-02T09:10:06;23.1;;;15.0;;
83646;SDS011;73609;50.134;14.376;2024-03-02T09:12:05;25.0;;;16.4;;
83646;SDS011;73609;50.134;14.376;2024-03-02T09:14:05;24.6;;;15.4;;
83646;SDS011;73609;50.134;14.376;2024-03-02T09:16:05;24.9;;;15.6;;
83646;SDS011;73609;50.134;14.376;2024-03-02T09:18:05;21.9;;;15.5;;
83646;SDS011;73609;50.134;14.376;2024-03-02T09:20:05;22.8;;;14.9;;
83646;SDS011;73609;50.134;14.376;2024-03-02T09:22:05;22.6;;;15.2;;
83646;SDS011;73609;50.134;14.376;2024-03-02T09:24:05;25.0;;;15.1;;
83646;SDS011;73609;50.134;14.376;2024-03-02T09:26:05;22.6;;;14.8;;
83646;SDS011;73609;50.134;14.376;2024-03-02T09:28:05;22.9;;;14.5;;
83646;SDS011;73609;50.134;14.376;2024-03-02T09:30:07;24.1;;;14.6;;
83646;SDS011;73609;50.134;14.376;2024-03-02T09:32:05;20.7;;;14.4;;
83646;SDS011;73609;50.134;14.376;2024-03-02T09:34:05;22.1;;;13.9;;
83646;SDS011;73609;50.134;14.376;2024-03-02T09:36:05;25.5;;;14.9;;
83646;SDS011;73609;50.134;14.376;2024-03-02T09:38:05;22.3;;;14.0;;
83646;SDS011;73609;50.134;14.376;2024-03-02T09:40:05;21.9;;;13.1;;
83646;SDS011;73609;50.134;14.376;2024-03-02T09:42:05;18.8;;;11.8;;
83646;SDS011;73609;50.134;14.376;2024-03-02T09:44:05;21.2;;;13.3;;
83646;SDS011;73609;50.134;14.376;2024-03-02T09:46:08;21.8;;;13.7;;
83646;SDS011;73609;50.134;14.376;2024-03-02T09:48:05;21.1;;;12.5;;
83646;SDS011;73609;50.134;14.376;2024-03-02T09:50:05;19.7;;;11.7;;
83646;SDS011;73609;50.134;14.376;2024-03-02T09:52:05;19.2;;;12.0;;
83646;SDS011;73609;50.134;14.376;2024-03-02T09:54:05;21.2;;;12.3;;
83646;SDS011;73609;50.134;14.376;2024-03-02T09:56:05;22.7;;;12.5;;
83646;SDS011;73609;50.134;14.376;2024-03-02T09:58:05;20.8;;;12.8;;
83646;SDS011;73609;50.134;14.376;2024-03-02T10:00:05;21.1;;;12.5;;
83646;SDS011;73609;50.134;14.376;2024-03-02T10:02:05;20.2;;;11.7;;
83646;SDS011;73609;50.134;14.376;2024-03-02T10:04:05;18.9;;;11.3;;
83646;SDS011;73609;50.134;14.376;2024-03-02T10:06:21;20.6;;;11.6;;
83646;SDS011;73609;50.134;14.376;2024-03-02T10:08:05;18.9;;;11.3;;
83646;SDS011;73609;50.134;14.376;2024-03-02T10:10:13;21.5;;;11.5;;
83646;SDS011;73609;50.134;14.376;2024-03-02T10:12:05;17.9;;;11.6;;
83646;SDS011;73609;50.134;14.376;2024-03-02T10:14:13;19.0;;;11.6;;
83646;SDS011;73609;50.134;14.376;2024-03-02T10:16:12;18.5;;;11.6;;
83646;SDS011;73609;50.134;14.376;2024-03-02T10:18:05;18.6;;;11.4;;
83646;SDS011;73609;50.134;14.376;2024-03-02T10:20:21;18.1;;;10.3;;
83646;SDS011;73609;50.134;14.376;2024-03-02T10:22:06;19.4;;;10.9;;
83646;SDS011;73609;50.134;14.376;2024-03-02T10:24:06;19.0;;;11.0;;
83646;SDS011;73609;50.134;14.376;2024-03-02T10:26:16;17.8;;;11.1;;
83646;SDS011;73609;50.134;14.376;2024-03-02T10:28:05;19.7;;;11.5;;
83646;SDS011;73609;50.134;14.376;2024-03-02T10:30:05;16.8;;;11.1;;
83646;SDS011;73609;50.134;14.376;2024-03-02T10:32:05;19.5;;;11.1;;
83646;SDS011;73609;50.134;14.376;2024-03-02T10:34:06;18.5;;;12.0;;
83646;SDS011;73609;50.134;14.376;2024-03-02T10:36:05;17.0;;;12.0;;
83646;SDS011;73609;50.134;14.376;2024-03-02T10:38:05;19.8;;;12.1;;
83646;SDS011;73609;50.134;14.376;2024-03-02T10:40:05;19.1;;;11.3;;
83646;SDS011;73609;50.134;14.376;2024-03-02T10:42:05;20.5;;;12.8;;
83646;SDS011;73609;50.134;14.376;2024-03-02T10:44:07;20.1;;;12.2;;
83646;SDS011;73609;50.134;14.376;2024-03-02T10:46:05;24.2;;;14.2;;
83646;SDS011;73609;50.134;14.376;2024-03-02T10:48:05;21.4;;;13.5;;
83646;SDS011;73609;50.134;14.376;2024-03-02T10:50:05;22.2;;;13.0;;
83646;SDS011;73609;50.134;14.376;2024-03-02T10:52:05;19.7;;;12.2;;
83646;SDS011;73609;50.134;14.376;2024-03-02T10:54:05;19.5;;;12.9;;
83646;SDS011;73609;50.134;14.376;2024-03-02T10:56:05;21.1;;;14.0;;
83646;SDS011;73609;50.134;14.376;2024-03-02T10:58:06;19.5;;;12.3;;
83646;SDS011;73609;50.134;14.376;2024-03-02T11:00:05;21.2;;;12.7;;
83646;SDS011;73609;50.134;14.376;2024-03-02T11:02:05;20.0;;;12.9;;
83646;SDS011;73609;50.134;14.376;2024-03-02T11:04:06;17.8;;;12.2;;
83646;SDS011;73609;50.134;14.376;2024-03-02T11:06:07;20.1;;;12.4;;
83646;SDS011;73609;50.134;14.376;2024-03-02T11:08:07;20.6;;;12.9;;
83646;SDS011;73609;50.134;14.376;2024-03-02T11:10:05;18.8;;;12.6;;
83646;SDS011;73609;50.134;14.376;2024-03-02T11:12:11;27.0;;;20.1;;
83646;SDS011;73609;50.134;14.376;2024-03-02T11:14:07;21.1;;;14.4;;
83646;SDS011;73609;50.134;14.376;2024-03-02T11:16:06;22.8;;;14.9;;
83646;SDS011;73609;50.134;14.376;2024-03-02T11:18:05;23.5;;;17.1;;
83646;SDS011;73609;50.134;14.376;2024-03-02T11:20:05;23.8;;;17.1;;
83646;SDS011;73609;50.134;14.376;2024-03-02T11:22:05;20.3;;;14.0;;
83646;SDS011;73609;50.134;14.376;2024-03-02T11:26:21;21.2;;;14.8;;
83646;SDS011;73609;50.134;14.376;2024-03-02T11:28:06;18.6;;;13.6;;
83646;SDS011;73609;50.134;14.376;2024-03-02T11:30:05;21.5;;;14.0;;
83646;SDS011;73609;50.134;14.376;2024-03-02T11:32:05;37.3;;;26.7;;
83646;SDS011;73609;50.134;14.376;2024-03-02T11:36:06;22.4;;;14.7;;
83646;SDS011;73609;50.134;14.376;2024-03-02T11:38:06;21.0;;;13.9;;
83646;SDS011;73609;50.134;14.376;2024-03-02T11:40:05;22.4;;;13.7;;
83646;SDS011;73609;50.134;14.376;2024-03-02T11:42:06;21.9;;;14.5;;
83646;SDS011;73609;50.134;14.376;2024-03-02T11:44:05;21.0;;;15.3;;
83646;SDS011;73609;50.134;14.376;2024-03-02T11:46:05;21.0;;;14.0;;
83646;SDS011;73609;50.134;14.376;2024-03-02T11:48:05;17.6;;;12.7;;
83646;SDS011;73609;50.134;14.376;2024-03-02T11:50:05;22.0;;;13.1;;
83646;SDS011;73609;50.134;14.376;2024-03-02T11:52:06;20.0;;;13.8;;
83646;SDS011;73609;50.134;14.376;2024-03-02T11:54:05;19.1;;;13.6;;